Date,TemperatureHighF,TemperatureAvgF,TemperatureLowF,DewpointHighF,DewpointAvgF,DewpointLowF,HumidityHigh,HumidityAvg,HumidityLow,PressureMaxIn,PressureMinIn,WindSpeedMaxMPH,WindSpeedAvgMPH,GustSpeedMaxMPH,PrecipitationSumIn
2013-10-1,74,64,58,60,56,53,86,74,56,30.06,29.98,9,1,9,0.00
2013-10-2,77,67,61,61,58,55,84,74,55,30.07,30.01,9,2,9,0.00
2013-10-3,77,69,64,64,60,58,84,75,58,30.09,30.01,7,2,9,0.00
2013-10-4,79,70,65,65,61,59,86,74,57,30.07,30.00,5,1,5,0.00
2013-10-5,81,72,66,65,62,60,84,71,52,30.07,29.96,10,2,12,0.00
2013-10-6,82,73,67,65,61,58,85,68,48,29.98,29.81,22,5,23,0.00
2013-10-7,67,58,48,63,55,42,99,89,76,30.02,29.67,24,5,24,1.06
2013-10-8,62,52,44,48,43,40,93,74,52,30.29,30.01,9,1,11,0.00
2013-10-9,53,50,46,47,44,41,95,78,68,30.32,30.23,8,1,10,0.01
2013-10-10,48,46,44,48,46,44,99,98,94,30.24,30.06,10,2,11,0.01
2013-10-11,54,51,48,54,50,48,100,99,99,30.06,30.00,6,1,6,0.12
2013-10-12,58,55,53,58,55,52,100,100,99,30.17,30.03,9,0,9,0.06
2013-10-13,54,53,52,54,53,52,100,100,100,30.31,30.16,8,1,9,0.02
2013-10-14,55,52,49,55,52,49,100,100,100,30.32,30.24,8,1,8,0.00
2013-10-15,60,54,51,55,53,51,100,97,81,30.26,30.07,5,1,5,0.01
2013-10-16,63,57,54,56,53,49,92,88,76,30.07,29.90,8,5,8,0.05
2013-10-17,62,58,53,58,55,47,93,89,86,29.87,29.70,6,2,8,0.01
2013-10-18,57,49,43,47,41,38,90,75,53,29.99,29.77,9,4,9,0.00
2013-10-19,56,51,48,51,41,38,91,70,53,29.97,29.77,7,2,9,0.01
2013-10-20,55,47,38,40,35,33,83,64,49,30.10,29.85,5,2,6,0.03
2013-10-21,61,54,48,43,37,33,72,55,45,30.10,29.93,6,4,6,0.00
2013-10-22,54,50,42,44,38,31,71,64,54,29.93,29.80,6,2,6,0.00
2013-10-23,44,39,37,36,33,28,92,77,58,29.91,29.69,4,2,5,0.00
2013-10-24,38,34,31,32,28,27,90,80,62,30.15,29.91,10,2,11,0.00
2013-10-25,43,35,30,31,28,25,87,74,56,30.33,30.13,12,5,14,0.00
2013-10-26,49,38,32,32,26,24,78,65,40,30.32,29.95,12,3,12,0.00
2013-10-27,52,45,39,34,32,30,76,60,48,30.13,29.96,10,3,10,0.00
2013-10-28,56,50,44,39,36,31,65,58,52,30.24,30.12,4,2,10,0.00
2013-10-29,57,49,41,40,39,36,82,67,53,30.34,30.24,6,3,6,0.00
2013-10-30,60,54,49,51,47,41,85,78,70,30.26,30.14,8,3,8,0.00
2013-10-31,64,59,55,56,54,51,92,84,71,30.17,29.72,11,5,11,0.01